createdAt,value
2018-02-27T00:02:18.784Z,60.86
2018-02-27T00:04:46.144Z,61.09
2018-02-27T00:07:12.783Z,61.05
2018-02-27T00:09:39.470Z,61.10
2018-02-27T00:12:06.087Z,61.33
2018-02-27T00:14:32.678Z,61.45
2018-02-27T00:16:59.251Z,61.27
2018-02-27T00:19:26.645Z,61.35
2018-02-27T00:21:53.249Z,61.57
2018-02-27T00:24:20.574Z,61.77
2018-02-27T00:26:47.133Z,61.92
2018-02-27T00:29:14.441Z,62.29
2018-02-27T00:31:41.815Z,62.17
2018-02-27T00:34:08.382Z,61.85
2018-02-27T00:36:34.922Z,62.12
2018-02-27T00:39:01.563Z,61.94
2018-02-27T00:41:28.262Z,62.06
2018-02-27T00:43:54.816Z,62.15
2018-02-27T00:46:22.101Z,62.19
2018-02-27T00:48:48.716Z,62.42
2018-02-27T00:51:15.242Z,62.46
2018-02-27T00:53:42.544Z,62.78
2018-02-27T00:56:09.251Z,63.22
2018-02-27T00:58:35.821Z,62.94
2018-02-27T01:01:02.434Z,63.21
2018-02-27T01:03:29.054Z,63.48
2018-02-27T01:05:55.625Z,63.45
2018-02-27T01:08:22.206Z,63.29
2018-02-27T01:10:48.777Z,63.16
2018-02-27T01:13:15.317Z,63.45
2018-02-27T01:15:41.906Z,64.29
2018-02-27T01:18:08.479Z,64.37
2018-02-27T01:20:35.773Z,64.78
2018-02-27T01:23:02.561Z,64.33
2018-02-27T01:25:29.193Z,64.66
2018-02-27T01:27:56.518Z,64.75
2018-02-27T01:30:23.074Z,64.98
2018-02-27T01:32:49.770Z,65.26
2018-02-27T01:35:16.296Z,65.26
2018-02-27T01:37:42.870Z,65.18
2018-02-27T01:40:09.417Z,65.11
2018-02-27T01:42:35.953Z,65.18
2018-02-27T01:45:03.286Z,65.27
2018-02-27T01:47:29.831Z,65.13
2018-02-27T01:49:57.130Z,65.35
2018-02-27T01:52:23.713Z,65.23
2018-02-27T01:54:50.314Z,65.27
2018-02-27T01:57:16.901Z,65.53
2018-02-27T01:59:43.493Z,65.89
2018-02-27T02:02:10.050Z,65.76
2018-02-27T02:04:36.655Z,65.75
2018-02-27T02:07:03.209Z,65.66
2018-02-27T02:09:29.814Z,65.96
2018-02-27T02:11:56.418Z,66.00
2018-02-27T02:14:23.933Z,65.78
2018-02-27T02:16:50.543Z,65.91
2018-02-27T02:19:17.907Z,66.21
2018-02-27T02:21:44.494Z,66.15
2018-02-27T02:24:11.076Z,66.45
2018-02-27T02:26:37.675Z,66.69
2018-02-27T02:29:04.251Z,66.64
2018-02-27T02:31:30.818Z,66.52
2018-02-27T02:33:57.384Z,66.90
2018-02-27T02:36:23.954Z,67.36
2018-02-27T02:38:51.258Z,67.42
2018-02-27T02:41:17.818Z,67.18
2018-02-27T02:43:45.117Z,67.38
2018-02-27T02:46:11.734Z,67.09
2018-02-27T02:48:38.294Z,67.01
2018-02-27T02:51:04.870Z,66.88
2018-02-27T02:53:32.191Z,66.90
2018-02-27T02:55:58.781Z,67.12
2018-02-27T02:58:26.072Z,67.40
2018-02-27T03:00:52.703Z,67.33
2018-02-27T03:03:19.298Z,67.21
2018-02-27T03:05:46.606Z,67.71
2018-02-27T03:08:13.177Z,68.03
2018-02-27T03:10:40.499Z,67.68
2018-02-27T03:13:07.062Z,67.63
2018-02-27T03:15:33.650Z,67.98
2018-02-27T03:18:00.235Z,68.46
2018-02-27T03:20:26.791Z,68.84
2018-02-27T03:22:53.332Z,68.92
2018-02-27T03:25:19.927Z,69.00
2018-02-27T03:27:46.478Z,69.26
2018-02-27T03:30:13.055Z,69.14
2018-02-27T03:32:40.334Z,69.09
2018-02-27T03:35:06.938Z,69.22
2018-02-27T03:37:34.240Z,69.06
2018-02-27T03:40:00.798Z,69.44
2018-02-27T03:42:27.415Z,69.71
2018-02-27T03:44:53.978Z,69.68
2018-02-27T03:47:20.526Z,69.29
2018-02-27T03:49:47.889Z,69.26
2018-02-27T03:52:14.446Z,69.68
2018-02-27T03:54:41.028Z,69.52
2018-02-27T03:57:07.610Z,69.46
2018-02-27T03:59:34.145Z,69.67
2018-02-27T04:02:00.723Z,69.31
2018-02-27T04:04:27.287Z,69.63
2018-02-27T04:06:53.862Z,69.90
2018-02-27T04:09:20.386Z,70.05
2018-02-27T04:11:47.782Z,70.08
2018-02-27T04:14:14.366Z,70.01
2018-02-27T04:16:41.709Z,69.83
2018-02-27T04:19:08.325Z,69.93
2018-02-27T04:21:34.935Z,70.22
2018-02-27T04:24:01.576Z,70.04
2018-02-27T04:26:28.162Z,70.41
2018-02-27T04:28:55.443Z,69.95
2018-02-27T04:31:21.998Z,70.55
2018-02-27T04:33:48.594Z,70.64
2018-02-27T04:36:15.174Z,70.34
2018-02-27T04:38:41.742Z,70.72
2018-02-27T04:41:08.317Z,71.40
2018-02-27T04:43:34.859Z,72.22
2018-02-27T04:46:01.504Z,72.15
2018-02-27T04:48:28.058Z,72.19
2018-02-27T04:50:54.652Z,71.92
2018-02-27T04:53:21.238Z,72.02
2018-02-27T04:55:48.551Z,71.61
2018-02-27T04:58:15.149Z,71.66
2018-02-27T05:00:41.695Z,71.53
2018-02-27T05:03:09.068Z,71.63
2018-02-27T05:05:36.449Z,71.56
2018-02-27T05:08:03.037Z,71.81
2018-02-27T05:10:29.616Z,71.33
2018-02-27T05:12:56.174Z,71.40
2018-02-27T05:15:22.740Z,71.71
2018-02-27T05:17:49.286Z,71.97
2018-02-27T05:20:15.850Z,71.72
2018-02-27T05:22:42.411Z,71.55
2018-02-27T05:25:08.999Z,71.96
2018-02-27T05:27:36.322Z,71.96
2018-02-27T05:30:02.927Z,72.06
2018-02-27T05:32:29.594Z,71.89
2018-02-27T05:34:56.165Z,71.77
2018-02-27T05:37:23.555Z,72.17
2018-02-27T05:39:50.106Z,71.84
2018-02-27T05:42:17.310Z,72.13
2018-02-27T05:44:44.614Z,72.28
2018-02-27T05:47:11.183Z,72.61
2018-02-27T05:49:37.739Z,71.97
2018-02-27T05:52:05.054Z,71.77
2018-02-27T05:54:31.691Z,71.51
2018-02-27T05:56:58.328Z,72.03
2018-02-27T05:59:25.000Z,72.12
2018-02-27T06:01:52.303Z,72.36
2018-02-27T06:04:19.126Z,71.78
2018-02-27T06:06:45.690Z,71.91
2018-02-27T06:09:12.262Z,72.10
2018-02-27T06:11:38.872Z,71.90
2018-02-27T06:14:05.413Z,72.21
2018-02-27T06:16:31.998Z,71.80
2018-02-27T06:18:58.552Z,71.75
2018-02-27T06:21:25.154Z,71.84
2018-02-27T06:23:52.433Z,71.78
2018-02-27T06:26:19.035Z,71.97
2018-02-27T06:28:45.626Z,71.71
2018-02-27T06:31:12.194Z,71.92
2018-02-27T06:33:38.786Z,71.64
2018-02-27T06:36:05.331Z,72.11
2018-02-27T06:38:32.674Z,71.80
2018-02-27T06:40:59.234Z,71.88
2018-02-27T06:43:26.516Z,71.58
2018-02-27T06:45:53.126Z,71.50
2018-02-27T06:48:19.689Z,71.39
2018-02-27T06:50:47.164Z,70.41
2018-02-27T06:53:13.745Z,70.25
2018-02-27T06:55:40.586Z,70.31
2018-02-27T06:58:07.139Z,70.44
2018-02-27T07:00:33.699Z,70.51
2018-02-27T07:03:00.270Z,70.41
2018-02-27T07:05:26.832Z,70.47
2018-02-27T07:07:53.434Z,70.71
2018-02-27T07:10:20.002Z,69.86
2018-02-27T07:12:46.943Z,70.39
2018-02-27T07:15:14.302Z,70.17
2018-02-27T07:17:40.910Z,69.72
2018-02-27T07:20:07.497Z,70.28
2018-02-27T07:22:34.075Z,69.81
2018-02-27T07:25:00.653Z,69.65
2018-02-27T07:27:27.203Z,69.71
2018-02-27T07:29:53.781Z,70.13
2018-02-27T07:32:21.111Z,69.66
2018-02-27T07:34:47.694Z,69.21
2018-02-27T07:37:14.267Z,69.52
2018-02-27T07:39:40.937Z,68.90
2018-02-27T07:42:08.227Z,67.99
2018-02-27T07:44:34.835Z,67.55
2018-02-27T07:47:02.148Z,66.81
2018-02-27T07:49:28.730Z,66.03
2018-02-27T07:51:55.707Z,65.36
2018-02-27T07:54:22.357Z,64.85
2018-02-27T07:56:48.982Z,65.36
2018-02-27T07:59:15.658Z,65.10
2018-02-27T08:01:42.975Z,64.43
2018-02-27T08:04:09.646Z,62.87
2018-02-27T08:06:36.204Z,61.65
2018-02-27T08:09:03.593Z,60.33
2018-02-27T08:11:30.187Z,57.84
2018-02-27T08:13:57.077Z,55.78
2018-02-27T08:16:23.666Z,52.33
2018-02-27T08:18:50.210Z,50.45
2018-02-27T08:21:17.566Z,48.84
2018-02-27T08:23:44.173Z,48.93
2018-02-27T08:26:10.770Z,47.65
2018-02-27T08:28:37.336Z,45.21
2018-02-27T08:31:04.669Z,44.07
2018-02-27T08:33:32.110Z,42.96
2018-02-27T08:35:58.662Z,43.11
2018-02-27T08:38:25.210Z,42.23
2018-02-27T08:40:51.790Z,41.46
2018-02-27T08:43:19.186Z,41.84
2018-02-27T08:45:45.759Z,40.92
2018-02-27T08:48:12.334Z,40.04
2018-02-27T08:50:38.898Z,39.74
2018-02-27T08:53:05.738Z,38.94
2018-02-27T08:55:32.278Z,37.62
2018-02-27T08:57:58.955Z,36.97
2018-02-27T09:00:25.535Z,34.82
2018-02-27T09:02:52.138Z,37.38
2018-02-27T09:05:18.678Z,36.88
2018-02-27T09:07:45.974Z,36.72
2018-02-27T09:10:12.554Z,36.41
2018-02-27T09:12:39.179Z,34.94
2018-02-27T09:15:05.817Z,36.27
2018-02-27T09:17:32.386Z,38.14
2018-02-27T09:19:59.702Z,38.78
2018-02-27T09:22:26.281Z,37.05
2018-02-27T09:24:52.878Z,36.48
2018-02-27T09:27:19.501Z,36.37
2018-02-27T09:29:46.083Z,35.77
2018-02-27T09:32:13.314Z,36.71
2018-02-27T09:34:39.824Z,34.90
2018-02-27T09:37:07.351Z,32.48
2018-02-27T09:39:33.856Z,31.87
2018-02-27T09:42:01.124Z,31.92
2018-02-27T09:44:28.373Z,32.23
2018-02-27T09:46:55.644Z,32.44
2018-02-27T09:49:22.168Z,34.18
2018-02-27T09:51:48.772Z,33.34
2018-02-27T09:54:15.284Z,35.66
2018-02-27T09:56:41.808Z,35.26
2018-02-27T09:59:08.312Z,35.23
2018-02-27T10:01:35.152Z,37.46
2018-02-27T10:04:01.737Z,39.46
2018-02-27T10:06:28.272Z,40.06
2018-02-27T10:08:54.839Z,41.69
2018-02-27T10:11:21.351Z,42.85
2018-02-27T10:13:47.862Z,42.13
2018-02-27T10:16:14.430Z,42.38
2018-02-27T10:18:40.940Z,41.86
2018-02-27T10:21:07.740Z,42.17
2018-02-27T10:23:34.260Z,41.05
2018-02-27T10:26:01.513Z,41.54
2018-02-27T10:28:28.801Z,41.60
2018-02-27T10:30:55.324Z,42.64
2018-02-27T10:33:21.838Z,40.82
2018-02-27T10:35:49.111Z,42.21
2018-02-27T10:38:15.619Z,44.26
2018-02-27T10:40:42.234Z,46.31
2018-02-27T10:43:08.751Z,46.29
2018-02-27T10:45:35.385Z,46.51
2018-02-27T10:48:01.974Z,46.98
2018-02-27T10:50:28.487Z,47.60
2018-02-27T10:52:55.046Z,47.18
2018-02-27T10:55:22.293Z,48.37
2018-02-27T10:57:50.254Z,47.46
2018-02-27T11:13:38.040Z,48.42
2018-02-27T11:16:05.323Z,50.30
2018-02-27T11:18:32.580Z,48.51
2018-02-27T11:20:59.114Z,46.83
2018-02-27T11:23:26.412Z,46.80
2018-02-27T11:25:53.001Z,45.57
2018-02-27T11:28:20.275Z,45.56
2018-02-27T11:30:46.793Z,45.30
2018-02-27T11:33:13.324Z,45.75
2018-02-27T11:35:40.648Z,45.24
2018-02-27T11:38:07.296Z,44.01
2018-02-27T11:40:33.860Z,44.01
2018-02-27T11:43:01.156Z,44.85
2018-02-27T11:45:27.673Z,45.83
2018-02-27T11:47:54.220Z,46.26
2018-02-27T11:50:20.767Z,45.47
2018-02-27T11:52:47.337Z,46.05
2018-02-27T11:55:13.850Z,46.83
2018-02-27T11:57:40.398Z,46.97
2018-02-27T12:00:07.032Z,46.28
2018-02-27T12:02:33.605Z,46.37
2018-02-27T12:05:00.856Z,47.97
2018-02-27T12:07:28.201Z,48.45
2018-02-27T12:09:54.744Z,47.84
2018-02-27T12:12:22.032Z,48.99
2018-02-27T12:14:48.544Z,48.89
2018-02-27T12:17:15.868Z,49.48
2018-02-27T12:19:42.411Z,48.78
2018-02-27T12:22:09.666Z,48.24
2018-02-27T12:24:37.731Z,47.89
2018-02-27T12:27:04.996Z,47.85
2018-02-27T12:29:32.239Z,48.08
2018-02-27T12:31:59.049Z,48.60
2018-02-27T12:34:26.304Z,49.19
2018-02-27T12:36:52.869Z,48.98
2018-02-27T12:39:20.152Z,49.11
2018-02-27T12:41:46.693Z,50.31
2018-02-27T12:44:13.227Z,49.67
2018-02-27T12:46:39.742Z,49.29
2018-02-27T12:49:06.274Z,49.42
2018-02-27T12:51:33.548Z,47.99
2018-02-27T12:54:00.118Z,48.33
2018-02-27T12:56:27.423Z,49.73
2018-02-27T12:58:54.713Z,48.97
2018-02-27T13:01:21.219Z,48.44
2018-02-27T13:03:47.737Z,47.14
2018-02-27T13:06:14.292Z,47.41
2018-02-27T13:08:40.850Z,47.05
2018-02-27T13:11:07.408Z,47.02
2018-02-27T13:13:34.689Z,47.83
2018-02-27T13:16:02.275Z,46.57
2018-02-27T13:18:28.782Z,47.03
2018-02-27T13:20:56.082Z,47.75
2018-02-27T13:23:22.739Z,47.33
2018-02-27T13:25:50.039Z,48.05
2018-02-27T13:28:17.259Z,48.99
2018-02-27T13:30:44.098Z,47.81
2018-02-27T13:33:11.377Z,48.42
2018-02-27T13:35:37.967Z,48.65
2018-02-27T13:38:04.523Z,48.92
2018-02-27T13:40:31.045Z,48.19
2018-02-27T13:42:57.636Z,48.66
2018-02-27T13:45:24.157Z,48.51
2018-02-27T13:47:50.692Z,47.60
2018-02-27T13:50:17.214Z,48.88
2018-02-27T13:52:44.488Z,49.42
2018-02-27T13:55:11.724Z,49.73
2018-02-27T13:57:39.007Z,50.29
2018-02-27T14:00:05.508Z,50.76
2018-02-27T14:02:32.794Z,49.74
2018-02-27T14:04:59.356Z,50.81
2018-02-27T14:07:25.899Z,49.67
2018-02-27T14:09:52.440Z,48.71
2018-02-27T14:12:18.956Z,48.88
2018-02-27T14:14:45.512Z,50.50
2018-02-27T14:17:12.044Z,48.50
2018-02-27T14:19:38.532Z,49.63
2018-02-27T14:22:05.087Z,49.27
2018-02-27T14:24:31.624Z,49.97
2018-02-27T14:26:58.140Z,48.53
2018-02-27T14:29:24.694Z,49.74
2018-02-27T14:31:51.263Z,49.38
2018-02-27T14:34:18.616Z,50.64
2018-02-27T14:36:45.191Z,51.27
2018-02-27T14:39:11.709Z,50.89
2018-02-27T14:41:39.004Z,51.36
2018-02-27T14:44:05.613Z,51.06
2018-02-27T14:46:32.488Z,51.48
2018-02-27T14:48:59.013Z,51.17
2018-02-27T14:51:25.544Z,50.75
2018-02-27T14:53:52.069Z,51.19
2018-02-27T14:56:19.372Z,51.22
2018-02-27T14:58:46.638Z,51.12
2018-02-27T15:01:13.964Z,50.86
2018-02-27T15:03:40.502Z,50.75
2018-02-27T15:06:07.777Z,51.44
2018-02-27T15:08:35.104Z,51.15
2018-02-27T15:11:02.453Z,53.01
2018-02-27T15:13:28.965Z,53.11
2018-02-27T15:15:56.241Z,53.04
2018-02-27T15:18:22.745Z,51.60
2018-02-27T15:20:49.266Z,52.24
2018-02-27T15:23:17.518Z,52.21
2018-02-27T15:25:44.120Z,52.25
2018-02-27T15:28:10.688Z,51.87
2018-02-27T15:30:37.957Z,51.52
2018-02-27T15:33:04.940Z,52.12
2018-02-27T15:35:31.441Z,51.33
2018-02-27T15:37:57.953Z,52.15
2018-02-27T15:40:24.488Z,52.24
2018-02-27T15:42:51.735Z,53.22
2018-02-27T15:45:18.271Z,51.75
2018-02-27T15:47:44.812Z,52.74
2018-02-27T15:50:11.313Z,51.66
2018-02-27T15:52:37.893Z,52.53
2018-02-27T15:55:04.457Z,52.42
2018-02-27T15:57:31.730Z,52.46
2018-02-27T15:59:58.304Z,52.59
2018-02-27T16:02:24.822Z,53.57
2018-02-27T16:04:51.476Z,54.46
2018-02-27T16:07:18.105Z,55.12
2018-02-27T16:09:44.712Z,54.93
2018-02-27T16:12:11.260Z,54.94
2018-02-27T16:14:37.782Z,54.98
2018-02-27T16:17:04.298Z,54.66
2018-02-27T16:19:31.146Z,54.68
2018-02-27T16:21:57.747Z,53.92
2018-02-27T16:24:24.279Z,52.99
2018-02-27T16:26:50.907Z,52.35
2018-02-27T16:29:17.473Z,52.42
2018-02-27T16:31:44.774Z,51.43
2018-02-27T16:34:11.277Z,52.18
2018-02-27T16:36:37.853Z,51.38
2018-02-27T16:39:05.176Z,51.67
2018-02-27T16:41:32.232Z,51.66
2018-02-27T16:43:58.784Z,50.48
2018-02-27T16:46:25.283Z,52.09
2018-02-27T16:48:51.833Z,52.73
2018-02-27T16:51:18.571Z,52.71
2018-02-27T16:53:45.123Z,52.91
2018-02-27T16:56:11.652Z,53.50
2018-02-27T16:58:38.177Z,54.09
2018-02-27T17:01:04.739Z,53.96
2018-02-27T17:03:31.645Z,53.56
2018-02-27T17:05:58.934Z,53.45
2018-02-27T17:08:25.490Z,53.73
2018-02-27T17:10:53.070Z,53.79
2018-02-27T17:13:20.433Z,53.53
2018-02-27T17:15:47.776Z,53.97
2018-02-27T17:18:15.093Z,53.99
2018-02-27T17:20:41.729Z,54.43
2018-02-27T17:23:08.322Z,53.28
2018-02-27T17:25:34.966Z,54.00
2018-02-27T17:28:01.560Z,54.31
2018-02-27T17:30:28.946Z,54.43
2018-02-27T17:32:55.577Z,54.13
2018-02-27T17:35:22.935Z,54.25
2018-02-27T17:37:50.330Z,54.38
2018-02-27T17:40:16.899Z,54.74
2018-02-27T17:42:43.454Z,55.07
2018-02-27T17:45:10.780Z,55.36
2018-02-27T17:47:37.389Z,54.98
2018-02-27T17:50:03.992Z,54.94
2018-02-27T17:52:30.631Z,54.68
2018-02-27T17:54:57.332Z,55.02
2018-02-27T17:57:24.314Z,55.23
2018-02-27T17:59:50.886Z,55.39
2018-02-27T18:02:17.624Z,55.16
2018-02-27T18:04:44.226Z,55.00
2018-02-27T18:07:11.592Z,55.27
2018-02-27T18:09:38.175Z,54.95
2018-02-27T18:12:04.758Z,54.24
2018-02-27T18:14:32.074Z,54.90
2018-02-27T18:16:58.697Z,55.29
2018-02-27T18:19:25.303Z,55.48
2018-02-27T18:21:51.895Z,55.54
2018-02-27T18:24:18.492Z,55.62
2018-02-27T18:26:45.103Z,55.45
2018-02-27T18:29:11.767Z,55.84
2018-02-27T18:31:38.329Z,55.87
2018-02-27T18:34:05.641Z,55.74
2018-02-27T18:36:32.230Z,56.29
2018-02-27T18:38:59.295Z,56.34
2018-02-27T18:41:26.636Z,56.65
2018-02-27T18:43:54.120Z,56.73
2018-02-27T18:46:20.595Z,56.68
2018-02-27T18:48:47.189Z,56.89
2018-02-27T18:51:13.806Z,56.55
2018-02-27T18:53:41.242Z,56.51
2018-02-27T18:56:08.044Z,56.75
2018-02-27T18:58:34.658Z,56.95
2018-02-27T19:01:02.016Z,56.94
2018-02-27T19:03:28.726Z,56.93
2018-02-27T19:05:55.332Z,56.50
2018-02-27T19:08:21.934Z,56.32
2018-02-27T19:10:48.555Z,56.33
2018-02-27T19:13:15.902Z,55.56
2018-02-27T19:15:43.237Z,55.54
2018-02-27T19:18:09.798Z,55.88
2018-02-27T19:20:37.106Z,56.24
2018-02-27T19:23:03.743Z,56.47
2018-02-27T19:25:30.340Z,56.59
2018-02-27T19:27:56.949Z,56.95
2018-02-27T19:30:23.511Z,56.66
2018-02-27T19:32:50.110Z,56.86
2018-02-27T19:35:17.427Z,57.45
2018-02-27T19:37:44.059Z,57.70
2018-02-27T19:40:10.754Z,58.38
2018-02-27T19:42:38.124Z,58.39
2018-02-27T19:45:04.791Z,58.27
2018-02-27T19:47:31.372Z,58.91
2018-02-27T19:49:58.748Z,58.96
2018-02-27T19:52:26.051Z,58.42
2018-02-27T19:54:52.693Z,58.26
2018-02-27T19:57:19.267Z,58.19
2018-02-27T19:59:46.634Z,59.09
2018-02-27T20:02:13.248Z,58.92
2018-02-27T20:04:39.829Z,58.64
2018-02-27T20:07:06.445Z,59.23
2018-02-27T20:09:33.045Z,58.54
2018-02-27T20:11:59.655Z,58.78
2018-02-27T20:14:30.297Z,58.98
2018-02-27T20:16:56.911Z,58.93
2018-02-27T20:19:23.539Z,59.58
2018-02-27T20:21:50.198Z,60.01
2018-02-27T20:24:18.550Z,59.33
2018-02-27T20:26:45.152Z,58.72
2018-02-27T20:29:18.787Z,58.93
2018-02-27T20:31:45.393Z,58.94
2018-02-27T20:34:14.412Z,58.76
2018-02-27T20:36:41.040Z,59.05
2018-02-27T20:39:14.598Z,58.99
2018-02-27T20:41:41.185Z,58.86
2018-02-27T20:44:08.497Z,58.66
2018-02-27T20:46:35.172Z,58.58
2018-02-27T20:49:03.456Z,58.43
2018-02-27T20:51:30.126Z,58.69
2018-02-27T20:53:56.735Z,58.39
2018-02-27T20:56:23.303Z,58.53
2018-02-27T20:58:49.839Z,58.85
2018-02-27T21:01:16.544Z,58.67
2018-02-27T21:03:43.112Z,58.18
2018-02-27T21:06:09.762Z,58.74
2018-02-27T21:08:37.058Z,58.75
2018-02-27T21:11:04.392Z,58.73
2018-02-27T21:13:31.013Z,59.33
2018-02-27T21:15:59.079Z,59.96
2018-02-27T21:18:25.830Z,60.00
2018-02-27T21:20:52.448Z,59.37
2018-02-27T21:23:19.028Z,58.70
2018-02-27T21:25:45.582Z,59.05
2018-02-27T21:28:12.189Z,59.39
2018-02-27T21:30:39.534Z,59.11
2018-02-27T21:33:06.150Z,59.14
2018-02-27T21:35:32.715Z,59.06
2018-02-27T21:38:00.071Z,59.11
2018-02-27T21:40:26.635Z,58.37
2018-02-27T21:42:53.931Z,59.70
2018-02-27T21:45:20.527Z,59.82
2018-02-27T21:47:47.094Z,59.74
2018-02-27T21:50:13.677Z,59.91
2018-02-27T21:52:40.244Z,60.29
2018-02-27T21:55:06.832Z,59.73
2018-02-27T21:57:33.409Z,59.25
2018-02-27T22:00:00.773Z,59.50
2018-02-27T22:02:27.403Z,59.67
2018-02-27T22:04:54.014Z,60.08
2018-02-27T22:07:20.599Z,59.67
2018-02-27T22:09:47.153Z,59.57
2018-02-27T22:12:13.738Z,60.19
2018-02-27T22:14:41.042Z,60.62
2018-02-27T22:17:07.607Z,60.49
2018-02-27T22:19:34.933Z,61.18
2018-02-27T22:22:01.487Z,61.18
2018-02-27T22:24:28.832Z,61.38
2018-02-27T22:26:55.412Z,61.37
2018-02-27T22:29:22.750Z,61.77
2018-02-27T22:31:49.633Z,61.39
2018-02-27T22:34:16.234Z,60.89
2018-02-27T22:36:43.570Z,61.11
2018-02-27T22:39:10.244Z,61.68
2018-02-27T22:41:36.833Z,61.46
2018-02-27T22:44:03.430Z,61.45
2018-02-27T22:46:30.066Z,61.33
2018-02-27T22:48:56.636Z,61.23
2018-02-27T22:51:23.244Z,60.95
2018-02-27T22:53:49.790Z,59.91
2018-02-27T22:56:16.386Z,59.51
2018-02-27T22:58:42.992Z,60.56
2018-02-27T23:01:09.610Z,61.32
2018-02-27T23:03:36.235Z,61.56
2018-02-27T23:06:02.893Z,61.31
2018-02-27T23:08:29.571Z,61.55
2018-02-27T23:10:56.903Z,61.53
2018-02-27T23:13:23.505Z,61.66
2018-02-27T23:15:50.103Z,62.38
2018-02-27T23:18:17.441Z,61.63
2018-02-27T23:20:43.997Z,62.76
2018-02-27T23:23:10.657Z,63.61
2018-02-27T23:25:38.355Z,64.08
2018-02-27T23:28:07.653Z,64.46
2018-02-27T23:30:37.438Z,64.14
2018-02-27T23:33:06.699Z,63.92
2018-02-27T23:35:34.463Z,63.92
2018-02-27T23:38:01.751Z,63.19
2018-02-27T23:40:28.327Z,62.80
2018-02-27T23:42:55.021Z,63.26
2018-02-27T23:45:21.614Z,63.14
2018-02-27T23:47:48.157Z,62.98
2018-02-27T23:50:15.501Z,63.91
2018-02-27T23:52:42.051Z,63.81
2018-02-27T23:55:09.440Z,64.59
2018-02-27T23:57:35.993Z,65.10
